createdAt,value
2018-05-23T00:00:01.639Z,15.60
2018-05-23T00:02:29.806Z,15.70
2018-05-23T00:04:57.979Z,15.70
2018-05-23T00:07:25.379Z,15.60
2018-05-23T00:09:52.787Z,15.60
2018-05-23T00:12:20.195Z,15.50
2018-05-23T00:14:47.598Z,15.50
2018-05-23T00:17:14.999Z,15.50
2018-05-23T00:19:42.443Z,15.50
2018-05-23T00:22:09.849Z,15.50
2018-05-23T00:24:38.043Z,15.40
2018-05-23T00:27:05.459Z,15.40
2018-05-23T00:29:32.871Z,15.40
2018-05-23T00:32:00.276Z,15.40
2018-05-23T00:34:27.690Z,15.40
2018-05-23T00:36:55.099Z,15.40
2018-05-23T00:39:22.507Z,15.40
2018-05-23T00:41:49.919Z,15.40
2018-05-23T00:44:17.320Z,15.40
2018-05-23T00:46:45.487Z,15.40
2018-05-23T00:49:13.687Z,15.40
2018-05-23T00:51:41.096Z,15.40
2018-05-23T00:54:09.262Z,15.40
2018-05-23T00:56:36.672Z,15.40
2018-05-23T00:59:04.073Z,15.40
2018-05-23T01:01:31.488Z,15.50
2018-05-23T01:03:58.899Z,15.60
2018-05-23T01:06:26.299Z,15.60
2018-05-23T01:08:53.704Z,15.60
2018-05-23T01:11:21.111Z,15.60
2018-05-23T01:13:48.529Z,15.70
2018-05-23T01:16:15.926Z,15.70
2018-05-23T01:18:44.115Z,15.80
2018-05-23T01:21:11.528Z,15.70
2018-05-23T01:23:39.704Z,15.70
2018-05-23T01:26:07.115Z,15.70
2018-05-23T01:28:35.294Z,15.70
2018-05-23T01:31:02.707Z,15.70
2018-05-23T01:33:30.887Z,15.70
2018-05-23T01:35:59.056Z,15.60
2018-05-23T01:38:26.471Z,15.60
2018-05-23T01:40:54.639Z,15.50
2018-05-23T01:43:22.827Z,15.50
2018-05-23T01:45:50.248Z,15.50
2018-05-23T01:48:18.411Z,15.50
2018-05-23T01:50:45.816Z,15.40
2018-05-23T01:53:13.216Z,15.30
2018-05-23T01:55:40.619Z,15.20
2018-05-23T01:58:08.791Z,15.30
2018-05-23T02:00:36.194Z,15.30
2018-05-23T02:03:03.595Z,15.30
2018-05-23T02:05:31.007Z,15.30
2018-05-23T02:07:59.175Z,15.30
2018-05-23T02:10:26.587Z,15.30
2018-05-23T02:12:53.983Z,15.30
2018-05-23T02:15:21.383Z,15.30
2018-05-23T02:17:49.551Z,15.30
2018-05-23T02:20:16.965Z,15.30
2018-05-23T02:22:44.362Z,15.20
2018-05-23T02:25:11.766Z,15.30
2018-05-23T02:27:39.947Z,15.30
2018-05-23T02:30:07.384Z,15.20
2018-05-23T02:32:34.802Z,15.30
2018-05-23T02:35:02.967Z,15.30
2018-05-23T02:37:31.143Z,15.30
2018-05-23T02:39:58.547Z,15.30
2018-05-23T02:42:25.951Z,15.30
2018-05-23T02:44:53.363Z,15.30
2018-05-23T02:47:20.763Z,15.30
2018-05-23T02:49:48.167Z,15.30
2018-05-23T02:52:15.571Z,15.30
2018-05-23T02:54:43.753Z,15.30
2018-05-23T02:57:11.151Z,15.30
2018-05-23T02:59:38.551Z,15.30
2018-05-23T03:02:05.979Z,15.30
2018-05-23T03:04:33.378Z,15.20
2018-05-23T03:07:01.562Z,15.00
2018-05-23T03:09:28.971Z,15.00
2018-05-23T03:11:56.403Z,15.00
2018-05-23T03:14:23.810Z,14.90
2018-05-23T03:16:51.218Z,14.80
2018-05-23T03:19:19.387Z,14.80
2018-05-23T03:21:46.792Z,14.80
2018-05-23T03:24:14.195Z,14.70
2018-05-23T03:26:41.603Z,14.70
2018-05-23T03:29:09.767Z,14.80
2018-05-23T03:31:37.186Z,14.80
2018-05-23T03:34:04.577Z,14.80
2018-05-23T03:36:32.003Z,14.90
2018-05-23T03:38:59.407Z,14.90
2018-05-23T03:41:28.055Z,14.90
2018-05-23T03:43:55.463Z,14.80
2018-05-23T03:46:22.868Z,14.90
2018-05-23T03:48:51.041Z,14.90
2018-05-23T03:51:18.447Z,14.90
2018-05-23T03:53:45.948Z,14.90
2018-05-23T03:56:13.363Z,15.00
2018-05-23T03:58:40.783Z,15.00
2018-05-23T04:01:20.959Z,15.10
2018-05-23T04:04:00.342Z,15.10
2018-05-23T04:06:40.487Z,15.00
2018-05-23T04:09:08.650Z,15.00
2018-05-23T04:11:36.843Z,15.00
2018-05-23T04:14:04.264Z,15.00
2018-05-23T04:16:31.667Z,15.00
2018-05-23T04:18:59.866Z,15.00
2018-05-23T04:21:27.755Z,15.10
2018-05-23T04:23:55.171Z,15.10
2018-05-23T04:26:22.621Z,15.10
2018-05-23T04:28:50.044Z,15.20
2018-05-23T04:31:17.454Z,15.20
2018-05-23T04:33:45.627Z,15.10
2018-05-23T04:36:13.798Z,15.10
2018-05-23T04:38:41.204Z,15.10
2018-05-23T04:41:08.604Z,15.10
2018-05-23T04:43:36.020Z,15.10
2018-05-23T04:46:03.423Z,15.10
2018-05-23T04:48:30.822Z,15.10
2018-05-23T04:50:58.228Z,15.10
2018-05-23T04:53:26.400Z,15.00
2018-05-23T04:55:53.802Z,15.00
2018-05-23T04:58:21.211Z,15.00
2018-05-23T05:00:48.635Z,15.00
2018-05-23T05:03:16.043Z,15.10
2018-05-23T05:05:44.225Z,15.10
2018-05-23T05:08:11.636Z,15.10
2018-05-23T05:10:39.047Z,15.10
2018-05-23T05:13:06.467Z,15.10
2018-05-23T05:15:33.871Z,15.10
2018-05-23T05:18:02.063Z,15.20
2018-05-23T05:20:29.460Z,15.20
2018-05-23T05:22:56.880Z,15.20
2018-05-23T05:25:24.283Z,15.20
2018-05-23T05:27:51.694Z,15.20
2018-05-23T05:30:19.873Z,15.20
2018-05-23T05:32:47.281Z,15.10
2018-05-23T05:35:14.691Z,15.10
2018-05-23T05:37:42.094Z,15.20
2018-05-23T05:40:09.506Z,15.10
2018-05-23T05:42:37.690Z,15.20
2018-05-23T05:45:05.107Z,15.10
2018-05-23T05:47:32.520Z,15.20
2018-05-23T05:49:59.930Z,15.30
2018-05-23T05:52:27.351Z,15.40
2018-05-23T05:54:54.756Z,15.50
2018-05-23T05:57:22.163Z,15.50
2018-05-23T05:59:49.574Z,15.50
2018-05-23T06:02:16.982Z,15.50
2018-05-23T06:04:44.390Z,15.40
2018-05-23T06:07:11.799Z,15.40
2018-05-23T06:09:39.290Z,15.30
2018-05-23T06:12:06.622Z,15.40
2018-05-23T06:14:34.031Z,15.40
2018-05-23T06:17:01.445Z,15.40
2018-05-23T06:19:28.848Z,15.50
2018-05-23T06:21:56.252Z,15.40
2018-05-23T06:24:23.663Z,15.60
2018-05-23T06:26:51.079Z,15.70
2018-05-23T06:29:18.486Z,15.60
2018-05-23T06:31:45.895Z,15.70
2018-05-23T06:34:14.072Z,15.70
2018-05-23T06:36:41.483Z,15.70
2018-05-23T06:39:08.888Z,15.60
2018-05-23T06:41:36.295Z,15.60
2018-05-23T06:44:03.703Z,15.60
2018-05-23T06:46:31.111Z,15.60
2018-05-23T06:48:58.514Z,15.70
2018-05-23T06:51:25.918Z,15.70
2018-05-23T06:53:53.323Z,15.70
2018-05-23T06:56:20.727Z,15.70
2018-05-23T06:58:48.899Z,15.70
2018-05-23T07:01:16.307Z,15.70
2018-05-23T07:03:43.715Z,15.80
2018-05-23T07:06:11.191Z,15.80
2018-05-23T07:08:38.526Z,15.90
2018-05-23T07:11:05.979Z,15.90
2018-05-23T07:13:33.330Z,16.00
2018-05-23T07:16:01.507Z,16.00
2018-05-23T07:18:28.920Z,15.90
2018-05-23T07:20:57.095Z,16.00
2018-05-23T07:23:25.259Z,16.10
2018-05-23T07:25:52.675Z,16.10
2018-05-23T07:28:20.075Z,16.20
2018-05-23T07:30:47.499Z,16.20
2018-05-23T07:33:14.906Z,16.10
2018-05-23T07:35:43.088Z,16.40
2018-05-23T07:38:10.507Z,16.40
2018-05-23T07:40:38.682Z,16.60
2018-05-23T07:43:06.088Z,16.60
2018-05-23T07:45:33.511Z,16.70
2018-05-23T07:48:00.936Z,16.70
2018-05-23T07:50:28.330Z,16.70
2018-05-23T07:52:55.748Z,16.60
2018-05-23T07:55:23.179Z,16.80
2018-05-23T07:57:50.590Z,16.90
2018-05-23T08:00:18.031Z,17.30
2018-05-23T08:02:45.443Z,17.50
2018-05-23T08:05:13.181Z,17.80
2018-05-23T08:07:40.584Z,17.80
2018-05-23T08:10:07.550Z,17.80
2018-05-23T08:12:35.726Z,17.80
2018-05-23T08:15:02.699Z,17.80
2018-05-23T08:17:30.111Z,17.90
2018-05-23T08:19:57.662Z,18.20
2018-05-23T08:22:25.083Z,17.90
2018-05-23T08:24:52.048Z,18.10
2018-05-23T08:27:19.023Z,18.30
2018-05-23T08:29:46.004Z,18.50
2018-05-23T08:32:13.698Z,18.50
2018-05-23T08:34:40.650Z,18.50
2018-05-23T08:37:07.641Z,18.50
2018-05-23T08:39:34.599Z,18.80
2018-05-23T08:42:02.322Z,18.90
2018-05-23T08:44:29.277Z,18.80
2018-05-23T08:46:57.006Z,19.10
2018-05-23T08:49:23.976Z,19.10
2018-05-23T08:51:50.934Z,18.80
2018-05-23T08:54:17.898Z,18.90
2018-05-23T08:56:44.863Z,18.80
2018-05-23T08:59:11.826Z,19.10
2018-05-23T09:01:38.786Z,19.40
2018-05-23T09:04:06.200Z,19.50
2018-05-23T09:06:33.155Z,19.30
2018-05-23T09:09:00.110Z,19.40
2018-05-23T09:11:28.296Z,19.70
2018-05-23T09:13:55.751Z,19.70
2018-05-23T09:16:23.159Z,19.70
2018-05-23T09:18:50.881Z,19.40
2018-05-23T09:21:17.838Z,19.40
2018-05-23T09:23:45.562Z,19.30
2018-05-23T09:26:12.587Z,19.30
2018-05-23T09:28:39.559Z,19.40
2018-05-23T09:31:07.279Z,19.20
2018-05-23T09:33:34.237Z,19.20
2018-05-23T09:36:01.206Z,19.10
2018-05-23T09:38:28.170Z,19.30
2018-05-23T09:40:55.139Z,19.50
2018-05-23T09:43:22.103Z,19.50
2018-05-23T09:45:49.514Z,19.50
2018-05-23T09:48:16.478Z,19.50
2018-05-23T09:50:43.887Z,19.40
2018-05-23T09:53:10.863Z,19.20
2018-05-23T09:55:37.828Z,19.30
2018-05-23T09:58:05.994Z,19.40
2018-05-23T10:00:33.398Z,19.30
2018-05-23T10:03:00.810Z,19.40
2018-05-23T10:05:28.215Z,19.70
2018-05-23T10:07:55.174Z,19.40
2018-05-23T10:10:22.130Z,19.30
2018-05-23T10:12:49.090Z,19.40
2018-05-23T10:15:16.823Z,19.50
2018-05-23T10:17:43.785Z,19.50
2018-05-23T10:20:11.509Z,19.70
2018-05-23T10:22:38.915Z,19.70
2018-05-23T10:25:05.873Z,19.80
2018-05-23T10:27:32.825Z,19.80
2018-05-23T10:30:00.559Z,19.50
2018-05-23T10:32:27.966Z,19.50
2018-05-23T10:34:54.922Z,19.50
2018-05-23T10:37:21.886Z,19.20
2018-05-23T10:39:48.847Z,19.20
2018-05-23T10:42:15.802Z,19.20
2018-05-23T10:44:42.822Z,19.10
2018-05-23T10:47:10.226Z,19.00
2018-05-23T10:49:37.194Z,18.90
2018-05-23T10:52:04.673Z,18.80
2018-05-23T10:54:32.040Z,18.70
2018-05-23T10:56:59.000Z,18.80
2018-05-23T10:59:25.959Z,19.00
2018-05-23T11:01:52.923Z,19.10
2018-05-23T11:04:20.654Z,19.90
2018-05-23T11:06:48.378Z,20.00
2018-05-23T11:09:15.334Z,20.00
2018-05-23T11:11:43.067Z,21.00
2018-05-23T11:14:10.476Z,21.00
2018-05-23T11:16:37.895Z,21.50
2018-05-23T11:19:05.296Z,21.70
2018-05-23T11:21:32.262Z,21.60
2018-05-23T11:23:59.663Z,21.70
2018-05-23T11:26:26.626Z,22.10
2018-05-23T11:28:54.037Z,22.20
2018-05-23T11:31:21.441Z,22.40
2018-05-23T11:33:48.838Z,23.30
2018-05-23T11:36:17.011Z,24.50
2018-05-23T11:38:44.415Z,24.50
2018-05-23T11:41:11.827Z,24.30
2018-05-23T11:43:39.235Z,24.00
2018-05-23T11:46:06.654Z,23.90
2018-05-23T11:48:34.819Z,23.70
2018-05-23T11:51:02.991Z,24.20
2018-05-23T11:53:30.399Z,24.10
2018-05-23T11:55:57.814Z,23.80
2018-05-23T11:58:25.234Z,23.40
2018-05-23T12:00:52.647Z,22.70
2018-05-23T12:03:20.060Z,22.30
2018-05-23T12:05:47.467Z,22.40
2018-05-23T12:08:14.883Z,22.90
2018-05-23T12:10:42.446Z,23.60
2018-05-23T12:13:09.696Z,23.80
2018-05-23T12:15:37.112Z,24.10
2018-05-23T12:18:04.507Z,24.20
2018-05-23T12:20:31.918Z,23.80
2018-05-23T12:22:59.323Z,24.40
2018-05-23T12:25:26.732Z,24.90
2018-05-23T12:27:54.135Z,24.10
2018-05-23T12:30:21.540Z,24.10
2018-05-23T12:32:49.710Z,25.20
2018-05-23T12:35:17.115Z,25.20
2018-05-23T12:37:44.519Z,25.30
2018-05-23T12:40:11.922Z,25.70
2018-05-23T12:42:39.392Z,25.20
2018-05-23T12:45:06.796Z,25.20
2018-05-23T12:47:34.975Z,23.90
2018-05-23T12:50:02.379Z,23.80
2018-05-23T12:52:29.790Z,23.50
2018-05-23T12:54:57.195Z,23.80
2018-05-23T12:57:24.607Z,24.10
2018-05-23T12:59:52.774Z,24.30
2018-05-23T13:02:20.956Z,24.90
2018-05-23T13:04:48.362Z,24.90
2018-05-23T13:07:15.767Z,25.20
2018-05-23T13:09:43.176Z,25.40
2018-05-23T13:12:10.588Z,25.50
2018-05-23T13:14:38.318Z,25.50
2018-05-23T13:17:05.724Z,25.50
2018-05-23T13:19:33.135Z,25.40
2018-05-23T13:22:00.538Z,25.60
2018-05-23T13:24:27.951Z,26.00
2018-05-23T13:26:55.351Z,26.40
2018-05-23T13:29:23.535Z,26.10
2018-05-23T13:31:51.047Z,26.00
2018-05-23T13:34:18.377Z,26.60
2018-05-23T13:36:45.780Z,26.70
2018-05-23T13:39:13.199Z,26.90
2018-05-23T13:41:40.609Z,26.80
2018-05-23T13:44:08.788Z,25.90
2018-05-23T13:46:36.183Z,25.90
2018-05-23T13:49:03.592Z,25.30
2018-05-23T13:51:30.994Z,25.60
2018-05-23T13:53:59.227Z,26.50
2018-05-23T13:56:26.635Z,26.50
2018-05-23T13:58:54.039Z,26.10
2018-05-23T14:01:22.213Z,26.00
2018-05-23T14:03:49.614Z,26.00
2018-05-23T14:06:17.037Z,26.20
2018-05-23T14:08:44.435Z,26.60
2018-05-23T14:11:11.838Z,26.90
2018-05-23T14:13:39.251Z,27.10
2018-05-23T14:16:06.659Z,27.10
2018-05-23T14:18:34.068Z,27.20
2018-05-23T14:21:02.242Z,26.20
2018-05-23T14:23:30.424Z,26.70
2018-05-23T14:25:57.822Z,26.70
2018-05-23T14:28:25.231Z,26.70
2018-05-23T14:30:52.659Z,26.80
2018-05-23T14:33:20.060Z,26.60
2018-05-23T14:35:48.246Z,26.50
2018-05-23T14:38:15.638Z,26.40
2018-05-23T14:40:44.550Z,26.20
2018-05-23T14:43:11.963Z,26.20
2018-05-23T14:45:39.358Z,26.00
2018-05-23T14:48:06.767Z,26.40
2018-05-23T14:50:34.950Z,26.60
2018-05-23T14:53:02.350Z,26.60
2018-05-23T14:55:30.525Z,26.60
2018-05-23T14:57:58.698Z,26.30
2018-05-23T15:00:26.101Z,26.30
2018-05-23T15:02:55.018Z,26.30
2018-05-23T15:05:22.427Z,26.30
2018-05-23T15:07:49.835Z,26.60
2018-05-23T15:10:17.242Z,26.90
2018-05-23T15:12:44.645Z,26.90
2018-05-23T15:15:11.602Z,26.80
2018-05-23T15:17:39.067Z,26.80
2018-05-23T15:20:06.488Z,26.60
2018-05-23T15:22:34.644Z,26.60
2018-05-23T15:25:02.055Z,26.60
2018-05-23T15:27:29.468Z,26.40
2018-05-23T15:29:56.879Z,26.60
2018-05-23T15:32:23.842Z,26.40
2018-05-23T15:34:51.251Z,26.10
2018-05-23T15:37:18.659Z,26.00
2018-05-23T15:39:46.066Z,26.50
2018-05-23T15:42:13.470Z,26.90
2018-05-23T15:44:40.868Z,27.10
2018-05-23T15:47:08.279Z,27.30
2018-05-23T15:49:35.695Z,27.40
2018-05-23T15:52:03.099Z,27.30
2018-05-23T15:54:31.270Z,27.50
2018-05-23T15:56:59.468Z,27.60
2018-05-23T15:59:26.865Z,27.60
2018-05-23T16:01:53.818Z,27.60
2018-05-23T16:04:21.235Z,27.30
2018-05-23T16:06:49.438Z,26.40
2018-05-23T16:09:16.843Z,26.30
2018-05-23T16:11:45.015Z,26.30
2018-05-23T16:14:12.420Z,26.30
2018-05-23T16:16:39.929Z,26.40
2018-05-23T16:19:07.343Z,26.80
2018-05-23T16:21:34.817Z,27.00
2018-05-23T16:24:02.218Z,26.80
2018-05-23T16:26:30.397Z,26.90
2018-05-23T16:28:57.799Z,26.90
2018-05-23T16:31:25.202Z,27.40
2018-05-23T16:33:52.615Z,26.80
2018-05-23T16:36:19.578Z,26.40
2018-05-23T16:38:47.002Z,26.30
2018-05-23T16:41:14.407Z,26.40
2018-05-23T16:43:42.584Z,26.50
2018-05-23T16:46:09.993Z,26.50
2018-05-23T16:48:37.400Z,26.80
2018-05-23T16:51:04.814Z,27.00
2018-05-23T16:53:32.215Z,27.10
2018-05-23T16:55:59.623Z,27.30
2018-05-23T16:58:26.587Z,26.80
2018-05-23T17:00:54.007Z,26.70
2018-05-23T17:03:21.427Z,27.00
2018-05-23T17:05:48.839Z,27.20
2018-05-23T17:08:16.242Z,27.40
2018-05-23T17:10:43.652Z,27.40
2018-05-23T17:13:10.615Z,26.90
2018-05-23T17:15:37.579Z,26.70
2018-05-23T17:18:05.758Z,26.40
2018-05-23T17:20:33.167Z,26.30
2018-05-23T17:23:01.355Z,26.00
2018-05-23T17:25:28.751Z,26.00
2018-05-23T17:27:56.167Z,25.70
2018-05-23T17:30:23.122Z,25.70
2018-05-23T17:32:50.090Z,25.50
2018-05-23T17:35:17.053Z,25.30
2018-05-23T17:37:44.019Z,25.50
2018-05-23T17:40:12.209Z,25.50
2018-05-23T17:42:40.365Z,25.40
2018-05-23T17:45:07.318Z,25.40
2018-05-23T17:47:34.733Z,25.20
2018-05-23T17:50:02.901Z,24.80
2018-05-23T17:52:29.861Z,24.80
2018-05-23T17:54:57.267Z,24.60
2018-05-23T17:57:24.243Z,24.20
2018-05-23T17:59:51.221Z,24.00
2018-05-23T18:02:18.946Z,23.30
2018-05-23T18:04:46.360Z,23.30
2018-05-23T18:07:13.315Z,22.80
2018-05-23T18:09:40.274Z,22.40
2018-05-23T18:12:07.243Z,22.20
2018-05-23T18:14:34.194Z,22.00
2018-05-23T18:17:01.598Z,21.80
2018-05-23T18:19:28.594Z,21.70
2018-05-23T18:21:56.761Z,21.60
2018-05-23T18:24:24.485Z,21.60
2018-05-23T18:26:51.446Z,21.60
2018-05-23T18:29:19.671Z,21.50
2018-05-23T18:31:47.015Z,21.50
2018-05-23T18:34:14.511Z,21.40
2018-05-23T18:36:41.925Z,21.30
2018-05-23T18:39:10.090Z,21.10
2018-05-23T18:41:37.045Z,21.10
2018-05-23T18:44:04.483Z,21.00
2018-05-23T18:46:31.886Z,20.90
2018-05-23T18:49:00.069Z,20.80
2018-05-23T18:51:27.910Z,20.70
2018-05-23T18:53:55.633Z,20.50
2018-05-23T18:56:22.599Z,20.50
2018-05-23T18:58:49.613Z,20.50
2018-05-23T19:01:17.330Z,20.40
2018-05-23T19:03:44.734Z,20.40
2018-05-23T19:06:12.134Z,20.30
2018-05-23T19:08:39.863Z,20.30
2018-05-23T19:11:06.826Z,20.30
2018-05-23T19:13:34.567Z,20.20
2018-05-23T19:16:02.744Z,20.10
2018-05-23T19:18:30.138Z,20.10
2018-05-23T19:20:57.555Z,20.10
2018-05-23T19:23:24.963Z,20.10
2018-05-23T19:25:51.918Z,20.00
2018-05-23T19:28:19.339Z,20.00
2018-05-23T19:30:46.751Z,19.80
2018-05-23T19:33:14.918Z,19.70
2018-05-23T19:35:43.121Z,19.50
2018-05-23T19:38:10.523Z,19.50
2018-05-23T19:40:38.703Z,19.30
2018-05-23T19:43:06.115Z,19.30
2018-05-23T19:45:34.289Z,19.20
2018-05-23T19:48:02.450Z,19.10
2018-05-23T19:50:29.867Z,19.10
2018-05-23T19:52:57.300Z,19.10
2018-05-23T19:55:24.679Z,19.00
2018-05-23T19:57:52.090Z,19.00
2018-05-23T20:00:20.267Z,18.90
2018-05-23T20:02:48.430Z,18.90
2018-05-23T20:05:15.904Z,18.90
2018-05-23T20:07:43.303Z,18.80
2018-05-23T20:10:11.480Z,18.80
2018-05-23T20:12:38.880Z,18.80
2018-05-23T20:15:06.283Z,18.80
2018-05-23T20:17:33.691Z,18.80
2018-05-23T20:20:01.100Z,18.80
2018-05-23T20:22:28.500Z,18.70
2018-05-23T20:24:55.910Z,18.70
2018-05-23T20:27:24.074Z,18.60
2018-05-23T20:29:52.254Z,18.60
2018-05-23T20:32:19.670Z,18.60
2018-05-23T20:34:47.843Z,18.50
2018-05-23T20:37:15.251Z,18.50
2018-05-23T20:39:42.649Z,18.50
2018-05-23T20:42:10.043Z,18.40
2018-05-23T20:44:38.228Z,18.30
2018-05-23T20:47:05.624Z,18.30
2018-05-23T20:49:33.793Z,18.30
2018-05-23T20:52:01.202Z,18.30
2018-05-23T20:54:28.603Z,18.30
2018-05-23T20:56:56.002Z,18.20
2018-05-23T20:59:23.411Z,18.20
2018-05-23T21:01:50.823Z,18.10
2018-05-23T21:04:18.238Z,18.10
2018-05-23T21:06:45.651Z,18.10
2018-05-23T21:09:13.051Z,18.00
2018-05-23T21:11:40.558Z,18.00
2018-05-23T21:14:07.867Z,18.00
2018-05-23T21:16:35.271Z,18.00
2018-05-23T21:19:02.687Z,18.00
2018-05-23T21:21:30.091Z,17.90
2018-05-23T21:23:57.492Z,17.90
2018-05-23T21:26:24.964Z,17.80
2018-05-23T21:28:52.364Z,17.80
2018-05-23T21:31:20.531Z,17.70
2018-05-23T21:33:47.930Z,17.70
2018-05-23T21:36:15.339Z,17.70
2018-05-23T21:38:42.742Z,17.70
2018-05-23T21:41:10.923Z,17.70
2018-05-23T21:43:38.323Z,17.70
2018-05-23T21:46:05.729Z,17.70
2018-05-23T21:48:33.126Z,17.70
2018-05-23T21:51:01.308Z,17.60
2018-05-23T21:53:28.720Z,17.60
2018-05-23T21:55:56.884Z,17.50
2018-05-23T21:58:25.056Z,17.50
2018-05-23T22:00:52.459Z,17.50
2018-05-23T22:03:19.880Z,17.50
2018-05-23T22:05:47.279Z,17.40
2018-05-23T22:08:14.682Z,17.40
2018-05-23T22:10:42.095Z,17.40
2018-05-23T22:13:09.504Z,17.30
2018-05-23T22:15:36.916Z,17.20
2018-05-23T22:18:05.086Z,17.20
2018-05-23T22:20:33.255Z,17.30
2018-05-23T22:23:00.674Z,17.30
2018-05-23T22:25:28.073Z,17.20
2018-05-23T22:27:55.476Z,17.20
2018-05-23T22:30:22.900Z,17.10
2018-05-23T22:32:50.286Z,17.00
2018-05-23T22:35:17.687Z,17.00
2018-05-23T22:37:45.871Z,16.90
2018-05-23T22:40:13.278Z,16.90
2018-05-23T22:42:41.447Z,16.80
2018-05-23T22:45:09.623Z,16.80
2018-05-23T22:47:37.026Z,16.70
2018-05-23T22:50:04.427Z,16.70
2018-05-23T22:52:31.834Z,16.80
2018-05-23T22:55:00.011Z,16.70
2018-05-23T22:57:27.427Z,16.70
2018-05-23T22:59:55.603Z,16.70
2018-05-23T23:02:23.003Z,16.70
2018-05-23T23:04:50.411Z,16.70
2018-05-23T23:07:17.806Z,16.70
2018-05-23T23:09:45.976Z,16.60
2018-05-23T23:12:14.151Z,16.60
2018-05-23T23:14:41.556Z,16.60
2018-05-23T23:17:08.956Z,16.60
2018-05-23T23:19:36.371Z,16.50
2018-05-23T23:22:03.767Z,16.40
2018-05-23T23:24:31.171Z,16.40
2018-05-23T23:26:58.584Z,16.30
2018-05-23T23:29:26.746Z,16.20
2018-05-23T23:31:54.208Z,16.10
2018-05-23T23:34:21.625Z,16.10
2018-05-23T23:36:49.019Z,16.10
2018-05-23T23:39:16.439Z,16.00
2018-05-23T23:41:43.875Z,16.00
2018-05-23T23:44:11.279Z,16.00
2018-05-23T23:46:39.453Z,15.90
2018-05-23T23:49:06.862Z,15.90
2018-05-23T23:51:34.271Z,15.90
2018-05-23T23:54:01.680Z,15.90
2018-05-23T23:56:29.080Z,15.90
2018-05-23T23:58:56.487Z,16.00
